Time;durP1;ratioP1;P1;durP2;ratioP2;P2;SDS_P1;SDS_P2;PMS_P1;PMS_P2;Temp;Humidity;BMP_temperature;BMP_pressure;BME280_temperature;BME280_humidity;BME280_pressure;Samples;Min_cycle;Max_cycle;Signal;HPM_P1;HPM_P2
2021/04/17 00:01:50;;;;;;;8.40;6.80;;;;;;;8.12;52.93;98504.66;8265644;28;20281;-67
2021/04/17 00:05:52;;;;;;;7.80;6.30;;;;;;;8.09;52.97;98502.13;8265429;28;20264;-68
2021/04/17 00:09:55;;;;;;;7.60;6.57;;;;;;;8.14;52.77;98498.53;8264955;28;20233;-67
2021/04/17 00:13:57;;;;;;;9.57;7.20;;;;;;;8.09;52.97;98499.56;8264874;28;20206;-67
2021/04/17 00:17:58;;;;;;;8.13;6.70;;;;;;;7.88;53.69;98501.81;8264934;28;20242;-67
2021/04/17 00:22:00;;;;;;;7.53;6.53;;;;;;;7.99;53.38;98492.03;8264549;28;20301;-66
2021/04/17 00:26:03;;;;;;;8.43;6.50;;;;;;;7.93;53.56;98487.03;8265014;28;20316;-68
2021/04/17 00:30:07;;;;;;;9.23;6.47;;;;;;;7.99;53.71;98489.47;8264030;28;20280;-67
2021/04/17 00:34:09;;;;;;;7.63;6.40;;;;;;;8.01;53.48;98484.28;8264288;28;20206;-67
2021/04/17 00:38:11;;;;;;;8.93;6.40;;;;;;;7.85;54.02;98478.66;8264234;28;20209;-67
2021/04/17 00:42:14;;;;;;;8.47;6.83;;;;;;;7.92;53.55;98476.75;8264350;28;20206;-67
2021/04/17 00:46:16;;;;;;;9.33;6.80;;;;;;;7.89;53.82;98479.44;8264164;28;20201;-68
2021/04/17 00:50:18;;;;;;;7.23;6.53;;;;;;;8.03;53.21;98472.19;8263591;28;20329;-67
2021/04/17 00:54:20;;;;;;;7.73;6.00;;;;;;;7.99;53.48;98473.16;8264048;28;20209;-68
2021/04/17 00:58:22;;;;;;;7.47;6.20;;;;;;;7.90;53.65;98466.50;8263439;28;20202;-67
2021/04/17 01:02:27;;;;;;;7.37;6.37;;;;;;;7.95;53.41;98456.06;8263809;28;20632;-67
2021/04/17 01:06:33;;;;;;;6.70;6.00;;;;;;;8.07;53.07;98465.22;8263714;28;20201;-67
2021/04/17 01:10:39;;;;;;;9.93;6.67;;;;;;;8.02;52.80;98463.59;8262375;28;20321;-67
2021/04/17 01:14:43;;;;;;;8.23;6.90;;;;;;;8.03;53.05;98457.56;8263414;28;20257;-66
2021/04/17 01:18:46;;;;;;;7.67;6.77;;;;;;;8.00;53.00;98461.97;8263494;28;20233;-67
2021/04/17 01:22:54;;;;;;;8.37;6.90;;;;;;;7.97;53.02;98460.28;8263342;28;20197;-67
2021/04/17 01:26:57;;;;;;;8.90;6.90;;;;;;;8.05;52.97;98456.66;8263260;28;20218;-67
2021/04/17 01:30:59;;;;;;;8.10;6.67;;;;;;;7.95;53.16;98454.31;8263072;28;20237;-66
2021/04/17 01:35:02;;;;;;;8.83;7.00;;;;;;;7.94;53.14;98450.06;8262943;28;20336;-66
2021/04/17 01:39:07;;;;;;;8.43;7.10;;;;;;;8.01;53.06;98454.19;8263009;28;20216;-67
2021/04/17 01:43:10;;;;;;;10.37;7.03;;;;;;;7.88;53.17;98450.25;8262841;28;20225;-66
2021/04/17 01:47:14;;;;;;;8.67;7.30;;;;;;;7.87;53.41;98450.28;8263001;28;20202;-67
2021/04/17 01:51:16;;;;;;;9.20;7.10;;;;;;;7.86;53.37;98445.97;8262944;28;20229;-67
2021/04/17 01:55:18;;;;;;;8.17;6.80;;;;;;;7.86;53.47;98448.56;8263137;28;20248;-67
2021/04/17 01:59:22;;;;;;;8.53;6.60;;;;;;;7.84;53.44;98440.84;8263057;28;20202;-67
2021/04/17 02:03:25;;;;;;;10.57;6.80;;;;;;;7.80;53.30;98432.34;8262850;28;20220;-66
2021/04/17 02:07:27;;;;;;;9.90;6.80;;;;;;;7.87;53.00;98435.63;8262765;28;20209;-66
2021/04/17 02:11:29;;;;;;;8.80;7.10;;;;;;;7.74;53.38;98436.84;8263100;28;20568;-66
2021/04/17 02:15:33;;;;;;;9.53;7.30;;;;;;;7.74;53.19;98431.69;8262468;28;20262;-66
2021/04/17 02:19:37;;;;;;;8.27;7.07;;;;;;;7.66;53.44;98429.28;8262770;28;20242;-67
2021/04/17 02:23:39;;;;;;;9.90;7.50;;;;;;;7.60;53.94;98432.88;8265523;28;20201;-67
2021/04/17 02:27:42;;;;;;;8.15;6.95;;;;;;;7.74;53.45;98422.19;8267580;28;20448;-66
2021/04/17 02:31:44;;;;;;;8.13;6.60;;;;;;;7.62;53.79;98427.69;8266964;28;20221;-66
2021/04/17 02:35:46;;;;;;;8.93;7.23;;;;;;;7.61;53.94;98418.25;8266536;28;20198;-68
2021/04/17 02:39:49;;;;;;;8.93;7.07;;;;;;;7.59;53.60;98423.44;8266941;28;20237;-66
2021/04/17 02:43:50;;;;;;;11.40;7.33;;;;;;;7.61;53.46;98413.94;8267160;28;20212;-66
2021/04/17 02:47:53;;;;;;;7.50;6.70;;;;;;;7.57;53.63;98422.63;8267334;28;20646;-66
2021/04/17 02:51:55;;;;;;;8.53;6.67;;;;;;;7.49;53.73;98414.25;8267122;28;20230;-66
2021/04/17 02:55:58;;;;;;;7.53;6.87;;;;;;;7.47;53.90;98405.72;8267188;28;20205;-66
2021/04/17 02:59:59;;;;;;;9.17;7.23;;;;;;;7.46;53.70;98401.44;8266932;28;20501;-66
2021/04/17 03:04:03;;;;;;;10.73;6.47;;;;;;;7.44;53.83;98398.91;8266309;28;20206;-67
2021/04/17 03:08:05;;;;;;;8.40;7.10;;;;;;;7.38;53.91;98398.19;8267135;28;20213;-66
2021/04/17 03:12:08;;;;;;;11.40;6.47;;;;;;;7.40;53.96;98396.44;8266232;28;20232;-66
2021/04/17 03:16:10;;;;;;;9.47;7.47;;;;;;;7.41;54.08;98392.97;8266278;28;20623;-66
2021/04/17 03:20:14;;;;;;;8.27;7.17;;;;;;;7.37;54.08;98384.47;8265945;28;20518;-66
2021/04/17 03:24:16;;;;;;;8.77;6.73;;;;;;;7.32;54.09;98388.06;8265546;28;20556;-66
2021/04/17 03:28:18;;;;;;;7.67;6.87;;;;;;;7.39;54.36;98385.28;8265446;28;20656;-66
2021/04/17 03:32:19;;;;;;;13.07;7.10;;;;;;;7.31;54.54;98376.03;8265324;28;20222;-66
2021/04/17 03:36:22;;;;;;;7.33;6.63;;;;;;;7.36;54.28;98384.50;8265591;28;20202;-66
2021/04/17 03:40:25;;;;;;;8.30;7.40;;;;;;;7.37;54.16;98378.50;8265331;28;20301;-66
2021/04/17 03:44:26;;;;;;;8.40;7.60;;;;;;;7.31;54.06;98379.47;8264747;28;20205;-66
2021/04/17 03:48:28;;;;;;;9.23;7.57;;;;;;;7.32;54.40;98380.31;8264984;28;20202;-66
2021/04/17 03:52:32;;;;;;;9.33;7.67;;;;;;;7.28;54.42;98371.81;8264921;28;20245;-66
2021/04/17 03:56:34;;;;;;;9.37;7.80;;;;;;;7.22;54.55;98383.13;8264602;28;20467;-66
2021/04/17 04:00:36;;;;;;;8.93;7.03;;;;;;;7.17;54.70;98382.38;8264500;28;20214;-67
2021/04/17 04:04:38;;;;;;;9.60;7.30;;;;;;;7.29;54.62;98390.69;8263010;28;20209;-67
2021/04/17 04:08:41;;;;;;;9.40;7.70;;;;;;;7.32;54.52;98388.88;8263965;28;20256;-67
2021/04/17 04:12:43;;;;;;;9.70;7.93;;;;;;;7.29;54.79;98390.69;8264548;28;20202;-67
2021/04/17 04:16:45;;;;;;;9.33;7.93;;;;;;;7.30;54.56;98392.41;8264001;28;20449;-67
2021/04/17 04:20:47;;;;;;;9.87;8.17;;;;;;;7.20;55.21;98389.19;8263881;28;20235;-67
2021/04/17 04:24:50;;;;;;;8.93;7.93;;;;;;;7.32;54.68;98393.22;8264213;28;20212;-67
2021/04/17 04:28:52;;;;;;;10.07;8.33;;;;;;;7.39;54.24;98395.59;8264167;28;20525;-67
2021/04/17 04:32:54;;;;;;;9.60;7.93;;;;;;;7.30;54.58;98389.81;8264083;28;20213;-67
2021/04/17 04:36:56;;;;;;;10.00;8.40;;;;;;;7.40;54.43;98394.69;8263949;28;20626;-67
2021/04/17 04:40:59;;;;;;;9.60;8.60;;;;;;;7.39;54.28;98387.88;8263183;28;20209;-67
2021/04/17 04:45:01;;;;;;;9.70;8.70;;;;;;;7.45;54.25;98392.03;8263657;28;20224;-66
2021/04/17 04:49:03;;;;;;;10.77;9.50;;;;;;;7.46;54.37;98393.69;8262936;28;20585;-66
2021/04/17 04:53:05;;;;;;;10.37;9.37;;;;;;;7.42;54.46;98397.25;8263324;28;20237;-66
2021/04/17 04:57:09;;;;;;;11.40;9.30;;;;;;;7.53;54.20;98397.81;8262926;28;20205;-66
2021/04/17 05:01:11;;;;;;;11.53;9.23;;;;;;;7.48;54.47;98402.22;8262413;28;20202;-66
2021/04/17 05:05:14;;;;;;;9.80;8.77;;;;;;;7.38;54.59;98395.63;8262560;28;20617;-67
2021/04/17 05:09:16;;;;;;;10.83;9.70;;;;;;;7.38;54.73;98396.47;8261625;28;20234;-68
2021/04/17 05:13:19;;;;;;;12.20;9.30;;;;;;;7.50;54.42;98390.19;8260633;28;20217;-67
2021/04/17 05:17:20;;;;;;;11.87;10.47;;;;;;;7.50;54.37;98395.34;8260057;28;20237;-67
2021/04/17 05:21:22;;;;;;;14.07;12.20;;;;;;;7.48;54.95;98403.97;8259878;28;20583;-65
2021/04/17 05:25:33;;;;;;;16.80;14.00;;;;;;;7.59;54.73;98402.81;8260064;28;20206;-65
2021/04/17 05:29:36;;;;;;;15.73;13.10;;;;;;;7.64;54.35;98400.13;8260065;28;20225;-68
2021/04/17 05:33:38;;;;;;;14.60;12.03;;;;;;;7.73;54.23;98399.91;8259746;28;20205;-65
2021/04/17 05:37:40;;;;;;;13.03;11.53;;;;;;;7.77;54.46;98406.66;8261755;28;20281;-65
2021/04/17 05:41:42;;;;;;;11.53;10.43;;;;;;;7.78;54.58;98403.19;8262712;28;20548;-66
2021/04/17 05:45:44;;;;;;;10.97;9.03;;;;;;;7.90;54.41;98406.31;8262242;28;20212;-65
2021/04/17 05:49:46;;;;;;;8.93;8.03;;;;;;;7.98;54.20;98415.56;8262286;28;20241;-65
2021/04/17 05:53:48;;;;;;;9.03;8.07;;;;;;;8.12;53.92;98404.03;8262242;28;20246;-65
2021/04/17 05:57:50;;;;;;;8.97;8.07;;;;;;;8.16;53.76;98411.63;8264212;28;20209;-66
2021/04/17 06:01:52;;;;;;;9.13;8.20;;;;;;;8.29;53.25;98406.97;8268640;28;20206;-66
2021/04/17 06:05:55;;;;;;;8.70;7.83;;;;;;;8.34;53.31;98409.44;8268630;28;20206;-65
2021/04/17 06:09:57;;;;;;;8.13;7.30;;;;;;;8.66;52.23;98407.69;8269131;28;20691;-66
2021/04/17 06:13:59;;;;;;;8.33;7.53;;;;;;;8.92;51.71;98404.34;8268375;28;20216;-65
2021/04/17 06:18:02;;;;;;;7.97;7.17;;;;;;;9.08;51.59;98407.28;8268734;28;20380;-65
2021/04/17 06:22:04;;;;;;;8.43;6.70;;;;;;;9.14;51.09;98412.28;8268547;28;20236;-65
2021/04/17 06:26:06;;;;;;;9.17;7.47;;;;;;;9.50;49.99;98409.38;8268248;28;20697;-65
2021/04/17 06:30:09;;;;;;;7.30;6.53;;;;;;;9.65;49.62;98406.28;8268565;28;20260;-66
2021/04/17 06:34:12;;;;;;;9.17;6.60;;;;;;;9.65;49.26;98408.88;8268570;28;20529;-65
2021/04/17 06:38:15;;;;;;;7.13;6.17;;;;;;;9.50;49.53;98401.63;8268108;28;20198;-65
2021/04/17 06:42:20;;;;;;;8.03;6.50;;;;;;;9.30;49.87;98413.47;8267830;28;20210;-65
2021/04/17 06:46:23;;;;;;;10.07;6.30;;;;;;;9.40;49.78;98403.66;8267733;28;20193;-65
2021/04/17 06:50:25;;;;;;;8.20;5.83;;;;;;;9.28;49.74;98415.25;8267298;28;20226;-65
2021/04/17 06:54:28;;;;;;;8.90;6.37;;;;;;;9.32;49.80;98411.66;8267491;28;20640;-65
2021/04/17 06:58:30;;;;;;;7.10;5.73;;;;;;;9.43;49.37;98421.66;8267542;28;20620;-65
2021/04/17 07:02:32;;;;;;;6.20;5.60;;;;;;;9.55;49.21;98413.50;8267330;28;20213;-65
2021/04/17 07:06:35;;;;;;;7.67;5.63;;;;;;;9.93;47.86;98419.13;8267266;28;20208;-66
2021/04/17 07:10:38;;;;;;;8.70;5.87;;;;;;;9.89;47.12;98419.28;8265673;28;20647;-65
2021/04/17 07:14:44;;;;;;;10.17;5.87;;;;;;;10.16;46.86;98418.31;8266358;28;20582;-65
2021/04/17 07:18:46;;;;;;;8.80;5.57;;;;;;;9.79;46.77;98423.94;8254972;28;20218;-66
2021/04/17 07:22:49;;;;;;;8.30;5.37;;;;;;;9.87;46.15;98413.34;8234631;28;20268;-65
2021/04/17 07:26:51;;;;;;;6.20;5.30;;;;;;;10.53;45.23;98411.03;8234018;28;20212;-65
2021/04/17 07:30:52;;;;;;;7.17;5.03;;;;;;;10.73;44.68;98407.66;8233482;28;20230;-65
2021/04/17 07:35:08;;;;;;;6.17;4.83;;;;;;;11.33;43.01;98406.19;8233816;28;20291;-65
2021/04/17 07:39:26;;;;;;;9.23;5.20;;;;;;;11.21;42.72;98411.00;8234986;28;20658;-66
2021/04/17 07:43:43;;;;;;;7.97;4.90;;;;;;;11.50;41.20;98409.84;8243575;28;20496;-66
2021/04/17 07:47:45;;;;;;;6.57;4.80;;;;;;;11.94;41.09;98417.53;8240882;28;20642;-65
2021/04/17 07:51:58;;;;;;;5.50;4.47;;;;;;;11.86;39.69;98414.38;8241003;28;20222;-65
2021/04/17 07:56:24;;;;;;;6.90;3.97;;;;;;;12.02;38.76;98418.06;8242895;28;20203;-66
2021/04/17 08:00:27;;;;;;;5.27;4.20;;;;;;;11.99;38.85;98420.78;8247396;28;20208;-66
2021/04/17 08:04:30;;;;;;;6.50;4.60;;;;;;;11.73;39.87;98422.69;8251724;28;20213;-66
2021/04/17 08:08:32;;;;;;;7.07;3.80;;;;;;;11.48;39.68;98414.22;8263928;28;20189;-67
2021/04/17 08:12:36;;;;;;;6.13;4.20;;;;;;;11.76;39.94;98413.09;8262215;28;20340;-66
2021/04/17 08:16:40;;;;;;;7.37;4.73;;;;;;;11.46;39.52;98409.13;8262261;28;20516;-66
2021/04/17 08:20:42;;;;;;;7.33;4.13;;;;;;;11.63;40.16;98420.53;8260129;28;20213;-66
2021/04/17 08:24:47;;;;;;;5.77;3.77;;;;;;;11.66;39.37;98408.28;8261849;28;20205;-67
2021/04/17 08:28:51;;;;;;;7.37;3.87;;;;;;;11.64;38.20;98409.28;8260953;28;20280;-66
2021/04/17 08:32:53;;;;;;;5.30;3.80;;;;;;;11.53;39.13;98418.31;8263487;28;20228;-66
2021/04/17 08:37:04;;;;;;;9.03;3.50;;;;;;;11.76;38.97;98415.69;8263711;28;20276;-66
2021/04/17 08:41:07;;;;;;;5.70;4.00;;;;;;;12.10;38.50;98422.91;8263839;28;20206;-66
2021/04/17 08:45:12;;;;;;;6.17;4.20;;;;;;;12.00;38.44;98408.66;8263731;28;20488;-66
2021/04/17 08:49:21;;;;;;;5.03;3.23;;;;;;;11.85;38.08;98418.75;8263350;28;20193;-66
2021/04/17 08:53:23;;;;;;;8.00;3.50;;;;;;;11.97;38.63;98416.56;8263299;28;20202;-66
2021/04/17 08:57:26;;;;;;;6.23;3.30;;;;;;;11.85;38.47;98413.53;8263489;28;20194;-66
2021/04/17 09:01:29;;;;;;;4.73;3.53;;;;;;;11.38;39.30;98405.97;8262581;28;20202;-66
2021/04/17 09:05:43;;;;;;;5.53;3.80;;;;;;;11.56;38.50;98407.00;8263212;28;20569;-66
2021/04/17 09:09:45;;;;;;;8.43;4.00;;;;;;;11.13;39.31;98408.72;8261931;28;20221;-66
2021/04/17 09:13:47;;;;;;;7.60;3.83;;;;;;;11.43;39.44;98411.00;8263184;28;20213;-65
2021/04/17 09:17:50;;;;;;;6.60;3.57;;;;;;;11.32;39.66;98409.66;8263076;28;20240;-65
2021/04/17 09:21:52;;;;;;;7.57;3.70;;;;;;;11.32;40.15;98414.00;8263897;28;20230;-65
2021/04/17 09:25:54;;;;;;;10.93;3.23;;;;;;;11.12;39.79;98404.44;8263716;28;20205;-66
2021/04/17 09:29:56;;;;;;;9.23;3.30;;;;;;;11.31;39.54;98399.38;8263351;28;20251;-65
2021/04/17 09:33:59;;;;;;;4.07;2.70;;;;;;;11.27;39.05;98398.66;8267037;28;20204;-66
2021/04/17 09:38:05;;;;;;;5.60;2.73;;;;;;;10.95;39.18;98400.75;8269517;28;20206;-66
2021/04/17 09:42:07;;;;;;;7.33;2.70;;;;;;;10.82;39.19;98401.31;8266828;28;20201;-65
2021/04/17 09:46:16;;;;;;;7.13;3.00;;;;;;;10.78;39.44;98399.75;8269322;28;20232;-66
2021/04/17 09:50:24;;;;;;;5.67;2.17;;;;;;;10.65;39.53;98402.78;8268155;28;20313;-66
2021/04/17 09:54:27;;;;;;;5.50;2.60;;;;;;;10.67;39.47;98395.78;8262681;28;20206;-66
2021/04/17 09:58:31;;;;;;;4.33;2.33;;;;;;;10.34;40.53;98390.13;8269430;28;20514;-65
2021/04/17 10:02:41;;;;;;;4.87;2.10;;;;;;;10.74;40.21;98397.25;8268762;28;20262;-66
2021/04/17 10:06:56;;;;;;;5.83;2.40;;;;;;;10.56;39.79;98392.75;8249040;28;20209;-65
2021/04/17 10:10:58;;;;;;;6.37;2.40;;;;;;;10.64;39.95;98388.16;8237255;28;20276;-66
2021/04/17 10:15:17;;;;;;;4.70;2.40;;;;;;;10.63;40.02;98391.63;8252274;28;20218;-66
2021/04/17 10:19:19;;;;;;;4.13;2.23;;;;;;;10.68;40.20;98387.13;8264700;28;20233;-66
2021/04/17 10:23:23;;;;;;;7.17;2.80;;;;;;;10.53;40.85;98385.13;8267854;28;20210;-66
2021/04/17 10:27:25;;;;;;;5.57;2.40;;;;;;;10.26;41.16;98381.75;8268326;28;20573;-66
2021/04/17 10:31:27;;;;;;;3.63;2.33;;;;;;;10.05;42.40;98386.81;8258312;28;20250;-66
2021/04/17 10:35:33;;;;;;;5.80;2.40;;;;;;;10.01;42.73;98377.47;8259535;28;20652;-65
2021/04/17 10:39:37;;;;;;;2.80;2.20;;;;;;;10.18;42.64;98366.50;8247061;28;20206;-66
2021/04/17 10:43:38;;;;;;;5.27;2.53;;;;;;;10.40;42.48;98361.44;8240826;28;20199;-65
2021/04/17 10:47:41;;;;;;;4.47;2.30;;;;;;;10.70;41.54;98364.59;8244639;28;20229;-64
2021/04/17 10:51:43;;;;;;;6.37;2.40;;;;;;;10.95;42.88;98363.66;8243565;28;20221;-65
2021/04/17 10:55:48;;;;;;;2.80;1.87;;;;;;;10.42;41.30;98359.63;8246886;28;20659;-64
2021/04/17 10:59:55;;;;;;;2.33;2.07;;;;;;;10.45;41.95;98362.09;8250378;28;20297;-64
2021/04/17 11:03:58;;;;;;;2.77;2.27;;;;;;;10.29;42.57;98363.53;8257559;28;20221;-64
2021/04/17 11:08:02;;;;;;;4.37;2.43;;;;;;;10.41;42.56;98355.31;8237360;28;20206;-64
2021/04/17 11:12:08;;;;;;;3.90;2.10;;;;;;;10.47;43.14;98360.31;8254326;28;20233;-64
2021/04/17 11:16:12;;;;;;;3.90;2.50;;;;;;;10.17;44.00;98355.31;8266454;28;20225;-64
2021/04/17 11:20:16;;;;;;;6.03;2.57;;;;;;;10.09;44.21;98357.34;8266159;28;20570;-64
2021/04/17 11:24:19;;;;;;;5.30;2.67;;;;;;;9.83;44.89;98350.50;8254592;28;20258;-64
2021/04/17 11:28:22;;;;;;;3.37;2.30;;;;;;;10.01;44.64;98354.16;8241902;28;20209;-64
2021/04/17 11:32:26;;;;;;;4.40;2.40;;;;;;;10.09;45.15;98349.59;8266026;28;20317;-66
2021/04/17 11:36:31;;;;;;;4.50;2.60;;;;;;;10.20;45.79;98356.09;8234484;28;20198;-65
2021/04/17 11:40:33;;;;;;;3.03;2.50;;;;;;;10.35;45.18;98347.78;8246977;28;20206;-65
2021/04/17 11:44:36;;;;;;;2.53;2.30;;;;;;;10.31;45.25;98351.41;8234079;28;20206;-66
2021/04/17 11:48:38;;;;;;;3.73;2.50;;;;;;;10.27;45.69;98358.41;8246346;28;20229;-65
2021/04/17 11:52:40;;;;;;;5.03;2.37;;;;;;;10.41;45.87;98347.56;8248553;28;20218;-65
2021/04/17 11:56:43;;;;;;;3.47;2.43;;;;;;;10.10;45.78;98356.44;8263311;28;20567;-65
2021/04/17 12:00:45;;;;;;;4.20;2.50;;;;;;;9.96;46.49;98356.09;8262083;28;20534;-64
2021/04/17 12:04:47;;;;;;;3.37;2.40;;;;;;;10.13;47.97;98361.50;8262241;28;20201;-64
2021/04/17 12:08:49;;;;;;;5.53;2.80;;;;;;;10.12;46.40;98362.38;8255479;28;20606;-64
2021/04/17 12:12:51;;;;;;;5.87;3.00;;;;;;;10.32;47.63;98353.13;8252569;28;20226;-64
2021/04/17 12:16:54;;;;;;;3.87;2.43;;;;;;;10.39;48.05;98354.53;8237210;28;20249;-66
2021/04/17 12:20:56;;;;;;;8.37;2.53;;;;;;;11.07;44.33;98346.75;8232285;28;20194;-64
2021/04/17 12:24:58;;;;;;;8.13;2.50;;;;;;;11.41;42.60;98351.41;8236816;28;20644;-64
2021/04/17 12:29:00;;;;;;;9.17;2.07;;;;;;;11.78;53.37;98347.25;8233144;28;20297;-68
2021/04/17 12:33:04;;;;;;;9.17;2.47;;;;;;;12.97;42.60;98352.31;8262804;28;20558;-68
2021/04/17 12:37:06;;;;;;;3.77;2.43;;;;;;;13.28;39.99;98349.06;8262995;28;20278;-69
2021/04/17 12:41:07;;;;;;;3.90;2.30;;;;;;;12.62;40.67;98337.47;8261130;28;20210;-65
2021/04/17 12:45:11;;;;;;;3.70;2.27;;;;;;;12.70;39.96;98337.13;8262325;28;20234;-64
2021/04/17 12:49:14;;;;;;;2.97;2.20;;;;;;;12.68;39.33;98331.97;8262209;28;20540;-65
2021/04/17 12:53:16;;;;;;;4.47;2.30;;;;;;;12.41;38.37;98326.28;8263346;28;20271;-64
2021/04/17 12:57:18;;;;;;;4.87;2.40;;;;;;;12.27;39.31;98321.75;8263344;28;20209;-64
2021/04/17 13:01:20;;;;;;;4.50;2.27;;;;;;;12.41;40.00;98322.88;8263205;28;20202;-64
2021/04/17 13:05:23;;;;;;;4.57;2.47;;;;;;;13.11;39.00;98319.50;8263682;28;20518;-65
2021/04/17 13:09:25;;;;;;;4.40;2.30;;;;;;;12.64;39.66;98316.59;8263567;28;20197;-65
2021/04/17 13:13:27;;;;;;;6.30;2.50;;;;;;;12.43;39.04;98313.25;8260798;28;20592;-64
2021/04/17 13:17:29;;;;;;;7.90;5.70;;;;;;;12.56;38.94;98316.97;8260507;28;20233;-66
2021/04/17 13:21:31;;;;;;;5.17;3.13;;;;;;;12.58;38.89;98309.09;8250332;28;20523;-65
2021/04/17 13:25:34;;;;;;;3.20;2.50;;;;;;;12.48;38.95;98304.31;8240235;28;20210;-65
2021/04/17 13:29:36;;;;;;;6.57;2.27;;;;;;;12.20;39.10;98302.16;8253896;28;20241;-65
2021/04/17 13:33:39;;;;;;;6.83;3.80;;;;;;;11.99;39.49;98295.34;8259636;28;20408;-65
2021/04/17 13:37:42;;;;;;;4.50;2.93;;;;;;;12.32;38.86;98296.41;8260142;28;20252;-64
2021/04/17 13:41:44;;;;;;;4.80;2.57;;;;;;;12.65;38.26;98293.13;8261608;28;20202;-65
2021/04/17 13:45:46;;;;;;;3.87;2.40;;;;;;;12.63;37.78;98291.53;8261808;28;20642;-65
2021/04/17 13:49:48;;;;;;;8.27;3.03;;;;;;;12.57;37.88;98284.03;8260971;28;20690;-66
2021/04/17 13:53:50;;;;;;;5.07;2.70;;;;;;;12.25;39.26;98279.44;8260792;28;20562;-66
2021/04/17 13:57:52;;;;;;;3.63;2.53;;;;;;;12.67;36.87;98280.09;8260836;28;20433;-65
2021/04/17 14:01:56;;;;;;;3.67;2.77;;;;;;;11.84;38.53;98271.75;8261682;28;20483;-65
2021/04/17 14:05:58;;;;;;;4.17;2.90;;;;;;;11.35;40.40;98274.72;8260459;28;20205;-65
2021/04/17 14:10:01;;;;;;;4.13;2.50;;;;;;;11.41;40.37;98270.19;8258982;28;20209;-64
2021/04/17 14:14:03;;;;;;;4.53;3.50;;;;;;;11.30;40.84;98276.66;8261764;28;20202;-64
2021/04/17 14:18:05;;;;;;;6.03;4.60;;;;;;;11.26;40.83;98277.69;8262765;28;20586;-65
2021/04/17 14:22:27;;;;;;;13.70;11.10;;;;;;;11.13;40.87;98268.75;8267616;28;20210;-65
2021/04/17 14:26:31;;;;;;;4.83;3.10;;;;;;;11.19;40.92;98272.84;8261847;28;20619;-64
2021/04/17 14:30:33;;;;;;;7.17;4.03;;;;;;;10.90;41.98;98270.53;8246085;28;20662;-65
2021/04/17 14:34:35;;;;;;;4.47;2.60;;;;;;;10.70;42.19;98271.34;8235946;28;20206;-65
2021/04/17 14:38:37;;;;;;;5.50;2.90;;;;;;;10.61;42.74;98271.72;8235384;28;20297;-65
2021/04/17 14:42:40;;;;;;;7.67;4.20;;;;;;;10.80;42.92;98277.00;8240884;28;20202;-65
2021/04/17 14:46:44;;;;;;;6.87;5.00;;;;;;;10.50;43.66;98268.69;8251023;28;20201;-64
2021/04/17 14:50:45;;;;;;;7.00;4.30;;;;;;;10.74;43.76;98270.31;8260103;28;20225;-64
2021/04/17 14:54:47;;;;;;;6.80;3.67;;;;;;;10.63;44.07;98271.66;8267953;28;20318;-64
2021/04/17 14:58:50;;;;;;;6.87;4.30;;;;;;;10.56;44.37;98271.88;8267422;28;20646;-65
2021/04/17 15:02:52;;;;;;;10.67;5.87;;;;;;;10.46;45.17;98280.91;8267219;28;20216;-65
2021/04/17 15:06:54;;;;;;;11.43;5.97;;;;;;;10.36;48.71;98283.03;8267015;28;20205;-64
2021/04/17 15:11:01;;;;;;;9.70;6.30;;;;;;;10.22;50.63;98274.91;8267251;28;20316;-65
2021/04/17 15:15:07;;;;;;;9.97;5.30;;;;;;;10.15;50.40;98276.88;8267224;28;20218;-64
2021/04/17 15:19:12;;;;;;;9.43;6.00;;;;;;;9.96;51.49;98276.72;8266721;28;20693;-64
2021/04/17 15:23:15;;;;;;;6.33;3.57;;;;;;;9.70;52.95;98280.25;8266593;28;20205;-64
2021/04/17 15:27:17;;;;;;;10.50;7.27;;;;;;;9.84;52.77;98277.16;8266082;28;20205;-65
2021/04/17 15:31:20;;;;;;;19.37;10.33;;;;;;;9.48;53.13;98282.78;8264975;28;20619;-65
2021/04/17 15:35:21;;;;;;;12.37;7.10;;;;;;;9.59;54.10;98290.13;8266582;28;20248;-64
2021/04/17 15:39:23;;;;;;;13.13;7.80;;;;;;;9.43;55.08;98289.00;8266948;28;20208;-65
2021/04/17 15:43:25;;;;;;;17.17;9.10;;;;;;;9.12;55.45;98297.75;8266613;28;20636;-64
2021/04/17 15:47:28;;;;;;;15.10;7.97;;;;;;;8.88;54.89;98292.50;8265481;28;20237;-65
2021/04/17 15:51:30;;;;;;;23.10;11.27;;;;;;;8.91;55.08;98297.59;8263683;28;20280;-65
2021/04/17 15:55:33;;;;;;;17.07;7.80;;;;;;;8.74;55.36;98294.72;8265527;28;20206;-65
2021/04/17 16:00:45;;;;;;;12.23;7.80;;;;;;;9.11;54.88;98289.19;8265814;28;20634;-65
2021/04/17 16:17:36;;;;;;;6.23;5.00;;;;;;;9.16;55.54;98289.88;8264551;28;20528;-65
2021/04/17 16:21:39;;;;;;;6.17;3.57;;;;;;;9.21;54.90;98297.47;8260801;28;20305;-66
2021/04/17 16:25:41;;;;;;;7.00;5.30;;;;;;;9.32;54.58;98294.53;8264086;28;20234;-66
2021/04/17 16:29:43;;;;;;;4.23;3.73;;;;;;;9.44;55.40;98288.91;8264632;28;20209;-65
2021/04/17 16:33:45;;;;;;;5.13;4.40;;;;;;;9.63;54.51;98288.28;8264803;28;20229;-66
2021/04/17 16:37:48;;;;;;;5.97;3.77;;;;;;;9.60;54.81;98286.66;8264530;28;20617;-66
2021/04/17 16:41:50;;;;;;;4.37;3.97;;;;;;;9.61;55.00;98293.50;8263973;28;20213;-65
2021/04/17 16:45:53;;;;;;;4.37;2.50;;;;;;;9.50;54.68;98286.16;8263780;28;20536;-66
2021/04/17 16:49:56;;;;;;;5.93;2.40;;;;;;;9.57;54.35;98286.75;8247705;28;20207;-65
2021/04/17 16:53:59;;;;;;;2.93;2.30;;;;;;;9.44;54.52;98286.34;8253911;28;20620;-65
2021/04/17 16:58:01;;;;;;;2.90;2.20;;;;;;;9.32;54.80;98292.78;8255003;28;21019;-66
2021/04/17 17:02:04;;;;;;;3.63;2.67;;;;;;;9.26;55.40;98293.00;8240525;28;20237;-66
2021/04/17 17:06:06;;;;;;;8.03;5.77;;;;;;;9.35;54.47;98295.28;8241800;28;20228;-67
2021/04/17 17:10:10;;;;;;;7.60;6.40;;;;;;;9.29;54.42;98297.19;8235156;28;20215;-66
2021/04/17 17:14:12;;;;;;;9.63;7.50;;;;;;;9.22;54.56;98300.91;8255475;28;20229;-65
2021/04/17 17:18:14;;;;;;;5.53;3.80;;;;;;;9.24;54.57;98293.94;8230512;28;20230;-65
2021/04/17 17:22:16;;;;;;;4.77;3.30;;;;;;;9.36;53.90;98291.78;8231136;28;20206;-65
2021/04/17 17:26:19;;;;;;;14.67;10.13;;;;;;;9.31;54.10;98303.16;8230744;28;20210;-65
2021/04/17 17:30:22;;;;;;;76.37;53.10;;;;;;;9.23;54.09;98302.59;8230897;28;20214;-65
2021/04/17 17:34:23;;;;;;;271.70;186.37;;;;;;;9.17;54.34;98298.47;8240869;28;20218;-65
2021/04/17 17:38:25;;;;;;;22.23;19.83;;;;;;;9.14;54.74;98304.59;8251269;28;20732;-65
2021/04/17 17:42:28;;;;;;;9.33;7.30;;;;;;;9.16;54.45;98296.78;8257147;28;20658;-65
2021/04/17 17:46:30;;;;;;;8.87;7.10;;;;;;;9.24;54.81;98310.28;8262085;28;20202;-65
2021/04/17 17:50:32;;;;;;;6.30;4.40;;;;;;;9.28;55.07;98306.69;8262042;28;20244;-65
2021/04/17 17:54:34;;;;;;;7.03;4.40;;;;;;;9.22;55.27;98303.50;8265783;28;20582;-65
2021/04/17 17:58:37;;;;;;;6.80;3.93;;;;;;;9.28;55.16;98303.28;8268670;28;20209;-65
2021/04/17 18:02:39;;;;;;;10.27;7.40;;;;;;;9.26;55.46;98311.09;8268677;28;20212;-67
2021/04/17 18:06:41;;;;;;;49.83;25.83;;;;;;;9.12;55.23;98314.13;8268846;28;20283;-65
2021/04/17 18:10:43;;;;;;;20.47;11.30;;;;;;;9.17;55.32;98312.22;8268782;28;20553;-65
2021/04/17 18:14:46;;;;;;;17.90;10.13;;;;;;;9.16;55.03;98315.72;8267259;28;20218;-65
2021/04/17 18:18:48;;;;;;;12.47;6.20;;;;;;;9.16;55.68;98318.28;8267822;28;20598;-67
2021/04/17 18:22:50;;;;;;;16.33;8.10;;;;;;;8.93;55.92;98319.06;8267582;28;20198;-65
2021/04/17 18:26:52;;;;;;;10.07;6.53;;;;;;;9.06;55.85;98314.31;8266818;28;20209;-66
2021/04/17 18:30:55;;;;;;;6.40;4.07;;;;;;;9.05;56.20;98322.97;8267836;28;20257;-66
2021/04/17 18:34:57;;;;;;;7.07;4.40;;;;;;;9.04;56.25;98317.84;8267608;28;20297;-66
2021/04/17 18:38:59;;;;;;;22.60;5.90;;;;;;;10.07;68.01;98327.22;8267043;28;20213;-70
2021/04/17 18:43:01;;;;;;;13.93;4.60;;;;;;;11.79;53.83;98324.75;8266481;28;20351;-70
2021/04/17 18:47:04;;;;;;;8.50;3.90;;;;;;;12.20;49.15;98327.28;8265864;28;20578;-70
2021/04/17 18:51:06;;;;;;;6.57;3.57;;;;;;;10.86;50.92;98338.94;8266330;28;20309;-65
2021/04/17 18:55:11;;;;;;;5.13;3.50;;;;;;;10.28;52.53;98328.19;8266920;28;20209;-67
2021/04/17 18:59:13;;;;;;;5.80;3.60;;;;;;;9.92;53.60;98328.66;8267517;28;20529;-64
2021/04/17 19:03:15;;;;;;;4.67;4.00;;;;;;;9.75;53.98;98331.84;8266896;28;20209;-66
2021/04/17 19:07:18;;;;;;;9.23;7.80;;;;;;;9.59;54.57;98324.63;8266323;28;20213;-66
2021/04/17 19:11:20;;;;;;;6.40;4.87;;;;;;;9.43;54.93;98336.38;8267459;28;20260;-66
2021/04/17 19:15:26;;;;;;;7.50;6.70;;;;;;;9.32;55.65;98326.38;8266747;28;20222;-66
2021/04/17 19:19:29;;;;;;;5.90;4.63;;;;;;;9.34;55.44;98323.75;8267191;28;20233;-65
2021/04/17 19:23:31;;;;;;;8.73;6.20;;;;;;;9.28;55.81;98329.13;8266916;28;20646;-66